sensor_id;sensor_type;location;lat;lon;timestamp;temperature;humidity
14850;DHT22;7517;48.400;11.770;2024-03-02T00:01:33;12.50;74.70
14850;DHT22;7517;48.400;11.770;2024-03-02T00:04:02;12.50;74.80
14850;DHT22;7517;48.400;11.770;2024-03-02T00:06:30;12.50;74.80
14850;DHT22;7517;48.400;11.770;2024-03-02T00:08:58;12.50;74.80
14850;DHT22;7517;48.400;11.770;2024-03-02T00:11:25;12.50;74.90
14850;DHT22;7517;48.400;11.770;2024-03-02T00:13:53;12.50;75.00
14850;DHT22;7517;48.400;11.770;2024-03-02T00:16:20;12.50;75.00
14850;DHT22;7517;48.400;11.770;2024-03-02T00:18:49;12.50;75.00
14850;DHT22;7517;48.400;11.770;2024-03-02T00:21:16;12.50;75.00
14850;DHT22;7517;48.400;11.770;2024-03-02T00:23:46;12.40;74.80
14850;DHT22;7517;48.400;11.770;2024-03-02T00:26:16;12.40;74.90
14850;DHT22;7517;48.400;11.770;2024-03-02T00:28:43;12.40;75.00
14850;DHT22;7517;48.400;11.770;2024-03-02T00:31:12;12.40;75.10
14850;DHT22;7517;48.400;11.770;2024-03-02T00:33:41;12.40;75.30
14850;DHT22;7517;48.400;11.770;2024-03-02T00:36:11;12.40;75.40
14850;DHT22;7517;48.400;11.770;2024-03-02T00:38:46;12.40;75.60
14850;DHT22;7517;48.400;11.770;2024-03-02T00:41:21;12.40;75.80
14850;DHT22;7517;48.400;11.770;2024-03-02T00:43:57;12.40;75.70
14850;DHT22;7517;48.400;11.770;2024-03-02T00:46:27;12.40;75.70
14850;DHT22;7517;48.400;11.770;2024-03-02T00:48:58;12.40;75.50
14850;DHT22;7517;48.400;11.770;2024-03-02T00:51:29;12.40;76.10
14850;DHT22;7517;48.400;11.770;2024-03-02T00:53:59;12.40;75.50
14850;DHT22;7517;48.400;11.770;2024-03-02T00:56:30;12.40;75.60
14850;DHT22;7517;48.400;11.770;2024-03-02T00:58:59;12.40;75.60
14850;DHT22;7517;48.400;11.770;2024-03-02T01:01:26;12.40;75.70
14850;DHT22;7517;48.400;11.770;2024-03-02T01:03:53;12.50;75.60
14850;DHT22;7517;48.400;11.770;2024-03-02T01:06:20;12.40;75.50
14850;DHT22;7517;48.400;11.770;2024-03-02T01:08:50;12.40;75.50
14850;DHT22;7517;48.400;11.770;2024-03-02T01:11:17;12.50;75.60
14850;DHT22;7517;48.400;11.770;2024-03-02T01:13:44;12.50;75.60
14850;DHT22;7517;48.400;11.770;2024-03-02T01:16:14;12.40;75.40
14850;DHT22;7517;48.400;11.770;2024-03-02T01:18:42;12.40;75.30
14850;DHT22;7517;48.400;11.770;2024-03-02T01:21:09;12.40;75.30
14850;DHT22;7517;48.400;11.770;2024-03-02T01:23:36;12.40;75.40
14850;DHT22;7517;48.400;11.770;2024-03-02T01:26:05;12.40;75.40
14850;DHT22;7517;48.400;11.770;2024-03-02T01:28:32;12.40;75.40
14850;DHT22;7517;48.400;11.770;2024-03-02T01:31:00;12.40;75.30
14850;DHT22;7517;48.400;11.770;2024-03-02T01:33:27;12.50;75.40
14850;DHT22;7517;48.400;11.770;2024-03-02T01:35:54;12.40;75.30
14850;DHT22;7517;48.400;11.770;2024-03-02T01:38:22;12.40;75.30
14850;DHT22;7517;48.400;11.770;2024-03-02T01:40:49;12.40;75.40
14850;DHT22;7517;48.400;11.770;2024-03-02T01:43:18;12.40;75.50
14850;DHT22;7517;48.400;11.770;2024-03-02T01:45:45;12.40;75.50
14850;DHT22;7517;48.400;11.770;2024-03-02T01:48:12;12.40;75.50
14850;DHT22;7517;48.400;11.770;2024-03-02T01:50:40;12.40;75.50
14850;DHT22;7517;48.400;11.770;2024-03-02T01:53:08;12.30;75.40
14850;DHT22;7517;48.400;11.770;2024-03-02T01:55:35;12.40;75.40
14850;DHT22;7517;48.400;11.770;2024-03-02T01:58:03;12.40;75.40
14850;DHT22;7517;48.400;11.770;2024-03-02T02:00:31;12.40;75.40
14850;DHT22;7517;48.400;11.770;2024-03-02T02:02:58;12.40;75.30
14850;DHT22;7517;48.400;11.770;2024-03-02T02:05:26;12.40;75.30
14850;DHT22;7517;48.400;11.770;2024-03-02T02:07:53;12.40;75.20
14850;DHT22;7517;48.400;11.770;2024-03-02T02:10:20;12.40;75.20
14850;DHT22;7517;48.400;11.770;2024-03-02T02:12:47;12.40;75.20
14850;DHT22;7517;48.400;11.770;2024-03-02T02:15:25;12.40;75.30
14850;DHT22;7517;48.400;11.770;2024-03-02T02:17:54;12.40;75.40
14850;DHT22;7517;48.400;11.770;2024-03-02T02:20:22;12.40;75.30
14850;DHT22;7517;48.400;11.770;2024-03-02T02:22:56;12.30;75.20
14850;DHT22;7517;48.400;11.770;2024-03-02T02:25:23;12.30;75.20
14850;DHT22;7517;48.400;11.770;2024-03-02T02:27:51;12.40;75.30
14850;DHT22;7517;48.400;11.770;2024-03-02T02:30:19;12.30;75.20
14850;DHT22;7517;48.400;11.770;2024-03-02T02:32:47;12.30;75.30
14850;DHT22;7517;48.400;11.770;2024-03-02T02:35:14;12.30;75.20
14850;DHT22;7517;48.400;11.770;2024-03-02T02:37:42;12.30;75.20
14850;DHT22;7517;48.400;11.770;2024-03-02T02:40:12;12.30;75.20
14850;DHT22;7517;48.400;11.770;2024-03-02T02:42:40;12.30;75.20
14850;DHT22;7517;48.400;11.770;2024-03-02T02:45:07;12.30;75.20
14850;DHT22;7517;48.400;11.770;2024-03-02T02:47:34;12.30;75.10
14850;DHT22;7517;48.400;11.770;2024-03-02T02:50:02;12.30;75.10
14850;DHT22;7517;48.400;11.770;2024-03-02T02:52:33;12.30;75.20
14850;DHT22;7517;48.400;11.770;2024-03-02T02:55:03;12.10;75.00
14850;DHT22;7517;48.400;11.770;2024-03-02T02:57:32;12.20;75.00
14850;DHT22;7517;48.400;11.770;2024-03-02T03:00:02;12.20;75.70
14850;DHT22;7517;48.400;11.770;2024-03-02T03:02:37;12.20;75.00
14850;DHT22;7517;48.400;11.770;2024-03-02T03:05:05;12.20;74.90
14850;DHT22;7517;48.400;11.770;2024-03-02T03:07:33;12.20;74.90
14850;DHT22;7517;48.400;11.770;2024-03-02T03:10:02;12.20;74.80
14850;DHT22;7517;48.400;11.770;2024-03-02T03:12:33;12.10;74.80
14850;DHT22;7517;48.400;11.770;2024-03-02T03:15:01;12.20;74.90
14850;DHT22;7517;48.400;11.770;2024-03-02T03:17:30;12.10;74.80
14850;DHT22;7517;48.400;11.770;2024-03-02T03:19:59;12.10;74.80
14850;DHT22;7517;48.400;11.770;2024-03-02T03:22:28;12.10;74.90
14850;DHT22;7517;48.400;11.770;2024-03-02T03:24:55;12.10;74.90
14850;DHT22;7517;48.400;11.770;2024-03-02T03:27:22;12.10;75.00
14850;DHT22;7517;48.400;11.770;2024-03-02T03:29:50;12.10;75.10
14850;DHT22;7517;48.400;11.770;2024-03-02T03:32:17;12.10;75.00
14850;DHT22;7517;48.400;11.770;2024-03-02T03:34:45;12.10;75.00
14850;DHT22;7517;48.400;11.770;2024-03-02T03:37:13;12.10;75.10
14850;DHT22;7517;48.400;11.770;2024-03-02T03:39:41;12.10;74.90
14850;DHT22;7517;48.400;11.770;2024-03-02T03:42:08;12.10;75.00
14850;DHT22;7517;48.400;11.770;2024-03-02T03:44:35;12.10;75.00
14850;DHT22;7517;48.400;11.770;2024-03-02T03:47:04;12.10;75.10
14850;DHT22;7517;48.400;11.770;2024-03-02T03:49:31;12.00;74.90
14850;DHT22;7517;48.400;11.770;2024-03-02T03:51:58;12.10;75.10
14850;DHT22;7517;48.400;11.770;2024-03-02T03:54:26;12.00;75.10
14850;DHT22;7517;48.400;11.770;2024-03-02T03:56:53;12.00;75.10
14850;DHT22;7517;48.400;11.770;2024-03-02T03:59:20;11.90;75.10
14850;DHT22;7517;48.400;11.770;2024-03-02T04:01:47;12.10;75.30
14850;DHT22;7517;48.400;11.770;2024-03-02T04:04:15;12.00;75.30
14850;DHT22;7517;48.400;11.770;2024-03-02T04:06:43;12.20;75.40
14850;DHT22;7517;48.400;11.770;2024-03-02T04:09:10;12.10;75.30
14850;DHT22;7517;48.400;11.770;2024-03-02T04:11:37;12.00;75.30
14850;DHT22;7517;48.400;11.770;2024-03-02T04:14:04;12.00;75.30
14850;DHT22;7517;48.400;11.770;2024-03-02T04:16:32;12.10;75.40
14850;DHT22;7517;48.400;11.770;2024-03-02T04:19:00;11.90;75.10
14850;DHT22;7517;48.400;11.770;2024-03-02T04:21:28;12.00;75.20
14850;DHT22;7517;48.400;11.770;2024-03-02T04:23:55;12.00;75.20
14850;DHT22;7517;48.400;11.770;2024-03-02T04:26:24;12.00;75.30
14850;DHT22;7517;48.400;11.770;2024-03-02T04:28:51;12.00;75.30
14850;DHT22;7517;48.400;11.770;2024-03-02T04:31:19;12.10;75.40
14850;DHT22;7517;48.400;11.770;2024-03-02T04:33:46;12.00;75.30
14850;DHT22;7517;48.400;11.770;2024-03-02T04:36:13;12.00;75.50
14850;DHT22;7517;48.400;11.770;2024-03-02T04:38:42;12.00;75.30
14850;DHT22;7517;48.400;11.770;2024-03-02T04:41:09;12.00;75.30
14850;DHT22;7517;48.400;11.770;2024-03-02T04:43:36;12.00;75.30
14850;DHT22;7517;48.400;11.770;2024-03-02T04:46:04;12.00;75.30
14850;DHT22;7517;48.400;11.770;2024-03-02T04:48:32;12.00;75.30
14850;DHT22;7517;48.400;11.770;2024-03-02T04:50:59;12.00;75.30
14850;DHT22;7517;48.400;11.770;2024-03-02T04:53:26;12.00;75.40
14850;DHT22;7517;48.400;11.770;2024-03-02T04:55:55;12.10;75.50
14850;DHT22;7517;48.400;11.770;2024-03-02T04:58:45;12.00;75.40
14850;DHT22;7517;48.400;11.770;2024-03-02T05:01:12;12.00;75.40
14850;DHT22;7517;48.400;11.770;2024-03-02T05:03:42;12.00;75.40
14850;DHT22;7517;48.400;11.770;2024-03-02T05:06:09;12.00;75.40
14850;DHT22;7517;48.400;11.770;2024-03-02T05:08:36;12.00;75.40
14850;DHT22;7517;48.400;11.770;2024-03-02T05:11:06;12.00;75.40
14850;DHT22;7517;48.400;11.770;2024-03-02T05:13:50;12.00;75.40
14850;DHT22;7517;48.400;11.770;2024-03-02T05:16:17;12.10;75.50
14850;DHT22;7517;48.400;11.770;2024-03-02T05:18:44;12.00;75.40
14850;DHT22;7517;48.400;11.770;2024-03-02T05:21:11;12.00;75.50
14850;DHT22;7517;48.400;11.770;2024-03-02T05:23:39;12.00;75.50
14850;DHT22;7517;48.400;11.770;2024-03-02T05:26:07;12.00;75.30
14850;DHT22;7517;48.400;11.770;2024-03-02T05:28:36;12.00;75.30
14850;DHT22;7517;48.400;11.770;2024-03-02T05:31:03;12.10;75.30
14850;DHT22;7517;48.400;11.770;2024-03-02T05:33:31;12.10;75.20
14850;DHT22;7517;48.400;11.770;2024-03-02T05:35:58;12.10;75.20
14850;DHT22;7517;48.400;11.770;2024-03-02T05:38:27;12.10;75.20
14850;DHT22;7517;48.400;11.770;2024-03-02T05:40:54;12.10;75.20
14850;DHT22;7517;48.400;11.770;2024-03-02T05:43:23;12.10;75.20
14850;DHT22;7517;48.400;11.770;2024-03-02T05:45:50;12.00;75.20
14850;DHT22;7517;48.400;11.770;2024-03-02T05:48:17;12.10;75.20
14850;DHT22;7517;48.400;11.770;2024-03-02T05:50:44;12.10;75.10
14850;DHT22;7517;48.400;11.770;2024-03-02T05:53:11;12.10;75.00
14850;DHT22;7517;48.400;11.770;2024-03-02T05:55:38;12.00;74.90
14850;DHT22;7517;48.400;11.770;2024-03-02T05:58:06;12.10;75.00
14850;DHT22;7517;48.400;11.770;2024-03-02T06:00:49;12.10;75.00
14850;DHT22;7517;48.400;11.770;2024-03-02T06:03:16;12.10;75.00
14850;DHT22;7517;48.400;11.770;2024-03-02T06:05:43;12.10;75.00
14850;DHT22;7517;48.400;11.770;2024-03-02T06:08:10;12.10;75.10
14850;DHT22;7517;48.400;11.770;2024-03-02T06:10:38;12.10;75.00
14850;DHT22;7517;48.400;11.770;2024-03-02T06:13:05;12.20;75.10
14850;DHT22;7517;48.400;11.770;2024-03-02T06:15:32;12.10;75.00
14850;DHT22;7517;48.400;11.770;2024-03-02T06:18:03;12.10;75.00
14850;DHT22;7517;48.400;11.770;2024-03-02T06:20:32;12.10;75.10
14850;DHT22;7517;48.400;11.770;2024-03-02T06:22:59;12.10;75.10
14850;DHT22;7517;48.400;11.770;2024-03-02T06:25:26;12.10;75.20
14850;DHT22;7517;48.400;11.770;2024-03-02T06:27:53;12.10;75.10
14850;DHT22;7517;48.400;11.770;2024-03-02T06:30:20;12.10;75.10
14850;DHT22;7517;48.400;11.770;2024-03-02T06:32:47;12.10;75.10
14850;DHT22;7517;48.400;11.770;2024-03-02T06:35:16;12.10;75.10
14850;DHT22;7517;48.400;11.770;2024-03-02T06:37:43;12.10;75.20
14850;DHT22;7517;48.400;11.770;2024-03-02T06:40:10;12.10;75.10
14850;DHT22;7517;48.400;11.770;2024-03-02T06:42:37;12.10;75.00
14850;DHT22;7517;48.400;11.770;2024-03-02T06:45:05;12.00;74.90
14850;DHT22;7517;48.400;11.770;2024-03-02T06:47:33;12.20;75.10
14850;DHT22;7517;48.400;11.770;2024-03-02T06:50:00;12.10;74.90
14850;DHT22;7517;48.400;11.770;2024-03-02T06:52:29;11.20;74.40
14850;DHT22;7517;48.400;11.770;2024-03-02T06:54:56;12.10;75.00
14850;DHT22;7517;48.400;11.770;2024-03-02T06:57:23;12.10;75.00
14850;DHT22;7517;48.400;11.770;2024-03-02T06:59:50;12.10;74.90
14850;DHT22;7517;48.400;11.770;2024-03-02T07:02:20;12.10;74.90
14850;DHT22;7517;48.400;11.770;2024-03-02T07:04:48;11.90;74.80
14850;DHT22;7517;48.400;11.770;2024-03-02T07:07:16;12.30;75.00
14850;DHT22;7517;48.400;11.770;2024-03-02T07:09:45;12.10;74.80
14850;DHT22;7517;48.400;11.770;2024-03-02T07:12:12;12.10;74.90
14850;DHT22;7517;48.400;11.770;2024-03-02T07:14:40;12.10;74.90
14850;DHT22;7517;48.400;11.770;2024-03-02T07:17:37;12.20;75.00
14850;DHT22;7517;48.400;11.770;2024-03-02T07:20:05;12.20;75.00
14850;DHT22;7517;48.400;11.770;2024-03-02T07:22:33;12.20;75.00
14850;DHT22;7517;48.400;11.770;2024-03-02T07:25:05;12.20;75.30
14850;DHT22;7517;48.400;11.770;2024-03-02T07:27:33;12.20;74.90
14850;DHT22;7517;48.400;11.770;2024-03-02T07:30:01;12.30;74.80
14850;DHT22;7517;48.400;11.770;2024-03-02T07:32:29;12.30;74.70
14850;DHT22;7517;48.400;11.770;2024-03-02T07:34:56;12.30;74.70
14850;DHT22;7517;48.400;11.770;2024-03-02T07:37:23;12.30;74.60
14850;DHT22;7517;48.400;11.770;2024-03-02T07:39:51;12.20;74.40
14850;DHT22;7517;48.400;11.770;2024-03-02T07:42:19;12.30;74.60
14850;DHT22;7517;48.400;11.770;2024-03-02T07:44:47;12.30;74.70
14850;DHT22;7517;48.400;11.770;2024-03-02T07:47:14;12.30;74.80
14850;DHT22;7517;48.400;11.770;2024-03-02T07:49:41;12.40;75.00
14850;DHT22;7517;48.400;11.770;2024-03-02T07:52:08;12.40;75.10
14850;DHT22;7517;48.400;11.770;2024-03-02T07:54:35;12.40;75.20
14850;DHT22;7517;48.400;11.770;2024-03-02T07:57:03;12.50;75.50
14850;DHT22;7517;48.400;11.770;2024-03-02T07:59:32;12.60;75.80
14850;DHT22;7517;48.400;11.770;2024-03-02T08:01:59;12.60;75.70
14850;DHT22;7517;48.400;11.770;2024-03-02T08:04:26;12.20;75.40
14850;DHT22;7517;48.400;11.770;2024-03-02T08:06:54;12.80;75.70
14850;DHT22;7517;48.400;11.770;2024-03-02T08:09:24;12.90;75.60
14850;DHT22;7517;48.400;11.770;2024-03-02T08:11:51;13.00;75.50
14850;DHT22;7517;48.400;11.770;2024-03-02T08:14:18;13.10;75.50
14850;DHT22;7517;48.400;11.770;2024-03-02T08:16:47;13.20;75.40
14850;DHT22;7517;48.400;11.770;2024-03-02T08:19:14;13.20;74.90
14850;DHT22;7517;48.400;11.770;2024-03-02T08:21:42;13.40;74.90
14850;DHT22;7517;48.400;11.770;2024-03-02T08:24:10;13.50;75.00
14850;DHT22;7517;48.400;11.770;2024-03-02T08:26:37;12.70;74.10
14850;DHT22;7517;48.400;11.770;2024-03-02T08:29:04;13.60;74.50
14850;DHT22;7517;48.400;11.770;2024-03-02T08:31:34;13.70;74.60
14850;DHT22;7517;48.400;11.770;2024-03-02T08:34:11;13.80;74.50
14850;DHT22;7517;48.400;11.770;2024-03-02T08:36:38;13.90;74.30
14850;DHT22;7517;48.400;11.770;2024-03-02T08:39:06;14.00;74.40
14850;DHT22;7517;48.400;11.770;2024-03-02T08:41:44;14.10;74.30
14850;DHT22;7517;48.400;11.770;2024-03-02T08:44:12;14.10;74.00
14850;DHT22;7517;48.400;11.770;2024-03-02T08:46:44;14.20;73.80
14850;DHT22;7517;48.400;11.770;2024-03-02T08:49:15;15.80;74.40
14850;DHT22;7517;48.400;11.770;2024-03-02T08:51:42;14.20;73.50
14850;DHT22;7517;48.400;11.770;2024-03-02T08:54:20;14.30;73.60
14850;DHT22;7517;48.400;11.770;2024-03-02T08:56:47;14.40;73.70
14850;DHT22;7517;48.400;11.770;2024-03-02T08:59:14;14.50;73.40
14850;DHT22;7517;48.400;11.770;2024-03-02T09:01:41;14.70;73.10
14850;DHT22;7517;48.400;11.770;2024-03-02T09:04:09;14.70;72.90
14850;DHT22;7517;48.400;11.770;2024-03-02T09:06:38;14.80;72.60
14850;DHT22;7517;48.400;11.770;2024-03-02T09:09:05;14.90;72.30
14850;DHT22;7517;48.400;11.770;2024-03-02T09:11:33;15.00;72.70
14850;DHT22;7517;48.400;11.770;2024-03-02T09:14:01;15.10;72.60
14850;DHT22;7517;48.400;11.770;2024-03-02T09:16:29;15.10;72.90
14850;DHT22;7517;48.400;11.770;2024-03-02T09:18:56;15.30;73.40
14850;DHT22;7517;48.400;11.770;2024-03-02T09:21:27;15.40;72.20
14850;DHT22;7517;48.400;11.770;2024-03-02T09:23:57;15.60;72.20
14850;DHT22;7517;48.400;11.770;2024-03-02T09:26:24;15.80;71.90
14850;DHT22;7517;48.400;11.770;2024-03-02T09:28:54;16.00;72.10
14850;DHT22;7517;48.400;11.770;2024-03-02T09:31:21;16.20;71.90
14850;DHT22;7517;48.400;11.770;2024-03-02T09:33:48;16.40;71.50
14850;DHT22;7517;48.400;11.770;2024-03-02T09:36:19;16.50;70.70
14850;DHT22;7517;48.400;11.770;2024-03-02T09:38:48;16.70;69.90
14850;DHT22;7517;48.400;11.770;2024-03-02T09:41:16;16.80;70.40
14850;DHT22;7517;48.400;11.770;2024-03-02T09:43:43;16.90;69.40
14850;DHT22;7517;48.400;11.770;2024-03-02T09:46:11;16.90;69.00
14850;DHT22;7517;48.400;11.770;2024-03-02T09:48:38;17.00;68.60
14850;DHT22;7517;48.400;11.770;2024-03-02T09:51:05;17.00;68.20
14850;DHT22;7517;48.400;11.770;2024-03-02T09:53:34;17.00;68.30
14850;DHT22;7517;48.400;11.770;2024-03-02T09:56:01;17.10;68.30
14850;DHT22;7517;48.400;11.770;2024-03-02T09:58:30;17.10;67.80
14850;DHT22;7517;48.400;11.770;2024-03-02T10:00:57;17.10;67.40
14850;DHT22;7517;48.400;11.770;2024-03-02T10:03:24;17.10;67.40
14850;DHT22;7517;48.400;11.770;2024-03-02T10:05:53;17.10;67.40
14850;DHT22;7517;48.400;11.770;2024-03-02T10:08:20;17.10;67.30
14850;DHT22;7517;48.400;11.770;2024-03-02T10:10:47;17.10;67.20
14850;DHT22;7517;48.400;11.770;2024-03-02T10:13:14;17.10;67.20
14850;DHT22;7517;48.400;11.770;2024-03-02T10:15:44;17.20;67.00
14850;DHT22;7517;48.400;11.770;2024-03-02T10:18:13;17.20;67.10
14850;DHT22;7517;48.400;11.770;2024-03-02T10:20:41;17.20;67.30
14850;DHT22;7517;48.400;11.770;2024-03-02T10:23:12;17.30;67.30
14850;DHT22;7517;48.400;11.770;2024-03-02T10:25:41;17.30;67.00
14850;DHT22;7517;48.400;11.770;2024-03-02T10:28:11;17.40;67.20
14850;DHT22;7517;48.400;11.770;2024-03-02T10:30:38;17.40;68.20
14850;DHT22;7517;48.400;11.770;2024-03-02T10:33:09;17.50;67.50
14850;DHT22;7517;48.400;11.770;2024-03-02T10:35:36;17.60;67.50
14850;DHT22;7517;48.400;11.770;2024-03-02T10:38:06;18.00;67.40
14850;DHT22;7517;48.400;11.770;2024-03-02T10:40:33;17.90;67.20
14850;DHT22;7517;48.400;11.770;2024-03-02T10:43:01;18.10;67.10
14850;DHT22;7517;48.400;11.770;2024-03-02T10:45:31;18.20;67.00
14850;DHT22;7517;48.400;11.770;2024-03-02T10:47:58;18.30;66.60
14850;DHT22;7517;48.400;11.770;2024-03-02T10:50:30;18.40;66.60
14850;DHT22;7517;48.400;11.770;2024-03-02T10:52:57;18.50;65.80
14850;DHT22;7517;48.400;11.770;2024-03-02T10:55:24;18.60;65.60
14850;DHT22;7517;48.400;11.770;2024-03-02T10:57:53;18.60;65.00
14850;DHT22;7517;48.400;11.770;2024-03-02T11:00:27;18.60;64.70
14850;DHT22;7517;48.400;11.770;2024-03-02T11:03:05;18.60;64.30
14850;DHT22;7517;48.400;11.770;2024-03-02T11:05:40;18.60;64.10
14850;DHT22;7517;48.400;11.770;2024-03-02T11:08:13;18.60;64.00
14850;DHT22;7517;48.400;11.770;2024-03-02T11:10:49;18.50;63.70
14850;DHT22;7517;48.400;11.770;2024-03-02T11:13:22;18.50;63.20
14850;DHT22;7517;48.400;11.770;2024-03-02T11:15:59;18.40;63.30
14850;DHT22;7517;48.400;11.770;2024-03-02T11:18:31;18.30;63.90
14850;DHT22;7517;48.400;11.770;2024-03-02T11:21:02;18.20;63.20
14850;DHT22;7517;48.400;11.770;2024-03-02T11:23:34;18.10;63.20
14850;DHT22;7517;48.400;11.770;2024-03-02T11:26:17;18.00;63.20
14850;DHT22;7517;48.400;11.770;2024-03-02T11:28:47;17.90;62.80
14850;DHT22;7517;48.400;11.770;2024-03-02T11:31:17;17.80;63.70
14850;DHT22;7517;48.400;11.770;2024-03-02T11:33:45;17.70;63.30
14850;DHT22;7517;48.400;11.770;2024-03-02T11:36:13;17.60;63.50
14850;DHT22;7517;48.400;11.770;2024-03-02T11:38:43;17.50;63.80
14850;DHT22;7517;48.400;11.770;2024-03-02T11:41:11;17.40;64.00
14850;DHT22;7517;48.400;11.770;2024-03-02T11:43:40;17.30;64.10
14850;DHT22;7517;48.400;11.770;2024-03-02T11:46:10;17.20;63.90
14850;DHT22;7517;48.400;11.770;2024-03-02T11:48:39;17.20;63.50
14850;DHT22;7517;48.400;11.770;2024-03-02T11:51:06;17.10;63.80
14850;DHT22;7517;48.400;11.770;2024-03-02T11:53:35;17.00;64.00
14850;DHT22;7517;48.400;11.770;2024-03-02T11:56:06;16.90;64.60
14850;DHT22;7517;48.400;11.770;2024-03-02T11:58:37;16.90;64.00
14850;DHT22;7517;48.400;11.770;2024-03-02T12:01:06;16.80;64.00
14850;DHT22;7517;48.400;11.770;2024-03-02T12:03:34;16.70;63.80
14850;DHT22;7517;48.400;11.770;2024-03-02T12:06:02;16.70;64.10
14850;DHT22;7517;48.400;11.770;2024-03-02T12:08:31;16.60;64.50
14850;DHT22;7517;48.400;11.770;2024-03-02T12:11:02;16.60;65.00
14850;DHT22;7517;48.400;11.770;2024-03-02T12:13:32;16.50;65.30
14850;DHT22;7517;48.400;11.770;2024-03-02T12:15:59;16.50;65.10
14850;DHT22;7517;48.400;11.770;2024-03-02T12:18:26;16.50;64.90
14850;DHT22;7517;48.400;11.770;2024-03-02T12:20:54;16.50;65.20
14850;DHT22;7517;48.400;11.770;2024-03-02T12:23:24;16.40;65.30
14850;DHT22;7517;48.400;11.770;2024-03-02T12:25:51;16.50;65.20
14850;DHT22;7517;48.400;11.770;2024-03-02T12:28:20;16.50;65.50
14850;DHT22;7517;48.400;11.770;2024-03-02T12:30:48;16.40;65.60
14850;DHT22;7517;48.400;11.770;2024-03-02T12:33:17;16.50;65.70
14850;DHT22;7517;48.400;11.770;2024-03-02T12:35:45;16.50;65.50
14850;DHT22;7517;48.400;11.770;2024-03-02T12:38:12;16.40;65.60
14850;DHT22;7517;48.400;11.770;2024-03-02T12:40:39;16.40;65.70
14850;DHT22;7517;48.400;11.770;2024-03-02T12:43:07;16.40;65.60
14850;DHT22;7517;48.400;11.770;2024-03-02T12:45:35;16.40;65.60
14850;DHT22;7517;48.400;11.770;2024-03-02T12:48:04;16.40;65.60
14850;DHT22;7517;48.400;11.770;2024-03-02T12:50:33;16.40;65.80
14850;DHT22;7517;48.400;11.770;2024-03-02T12:53:01;16.50;65.40
14850;DHT22;7517;48.400;11.770;2024-03-02T12:55:28;16.40;65.20
14850;DHT22;7517;48.400;11.770;2024-03-02T12:57:56;16.40;65.10
14850;DHT22;7517;48.400;11.770;2024-03-02T13:00:24;16.40;65.20
14850;DHT22;7517;48.400;11.770;2024-03-02T13:02:53;16.50;65.50
14850;DHT22;7517;48.400;11.770;2024-03-02T13:05:30;16.50;65.30
14850;DHT22;7517;48.400;11.770;2024-03-02T13:07:58;16.50;65.70
14850;DHT22;7517;48.400;11.770;2024-03-02T13:10:26;16.50;65.10
14850;DHT22;7517;48.400;11.770;2024-03-02T13:12:54;16.50;65.20
14850;DHT22;7517;48.400;11.770;2024-03-02T13:15:23;16.50;65.20
14850;DHT22;7517;48.400;11.770;2024-03-02T13:17:52;16.50;65.20
14850;DHT22;7517;48.400;11.770;2024-03-02T13:20:20;16.50;65.30
14850;DHT22;7517;48.400;11.770;2024-03-02T13:22:47;16.50;65.40
14850;DHT22;7517;48.400;11.770;2024-03-02T13:25:14;16.50;65.30
14850;DHT22;7517;48.400;11.770;2024-03-02T13:27:42;16.50;65.30
14850;DHT22;7517;48.400;11.770;2024-03-02T13:30:10;16.50;65.40
14850;DHT22;7517;48.400;11.770;2024-03-02T13:32:37;16.50;65.40
14850;DHT22;7517;48.400;11.770;2024-03-02T13:35:06;16.50;65.40
14850;DHT22;7517;48.400;11.770;2024-03-02T13:37:33;16.50;65.30
14850;DHT22;7517;48.400;11.770;2024-03-02T13:40:01;16.50;65.40
14850;DHT22;7517;48.400;11.770;2024-03-02T13:42:30;16.60;65.40
14850;DHT22;7517;48.400;11.770;2024-03-02T13:44:58;16.60;65.30
14850;DHT22;7517;48.400;11.770;2024-03-02T13:47:25;16.60;65.20
14850;DHT22;7517;48.400;11.770;2024-03-02T13:49:53;16.60;65.40
14850;DHT22;7517;48.400;11.770;2024-03-02T13:52:21;16.60;65.30
14850;DHT22;7517;48.400;11.770;2024-03-02T13:54:51;16.60;65.10
14850;DHT22;7517;48.400;11.770;2024-03-02T13:57:19;16.60;65.30
14850;DHT22;7517;48.400;11.770;2024-03-02T13:59:47;16.60;65.40
14850;DHT22;7517;48.400;11.770;2024-03-02T14:02:15;16.70;65.30
14850;DHT22;7517;48.400;11.770;2024-03-02T14:04:42;16.70;65.30
14850;DHT22;7517;48.400;11.770;2024-03-02T14:07:10;16.70;65.30
14850;DHT22;7517;48.400;11.770;2024-03-02T14:09:39;16.80;65.20
14850;DHT22;7517;48.400;11.770;2024-03-02T14:12:07;16.80;66.00
14850;DHT22;7517;48.400;11.770;2024-03-02T14:14:35;16.80;65.10
14850;DHT22;7517;48.400;11.770;2024-03-02T14:17:03;16.80;64.80
14850;DHT22;7517;48.400;11.770;2024-03-02T14:19:32;16.80;64.70
14850;DHT22;7517;48.400;11.770;2024-03-02T14:21:59;16.90;64.90
14850;DHT22;7517;48.400;11.770;2024-03-02T14:24:28;16.90;64.90
14850;DHT22;7517;48.400;11.770;2024-03-02T14:27:01;16.90;64.70
14850;DHT22;7517;48.400;11.770;2024-03-02T14:29:30;16.90;64.40
14850;DHT22;7517;48.400;11.770;2024-03-02T14:31:58;17.00;64.40
14850;DHT22;7517;48.400;11.770;2024-03-02T14:34:25;17.00;64.50
14850;DHT22;7517;48.400;11.770;2024-03-02T14:36:53;17.00;64.60
14850;DHT22;7517;48.400;11.770;2024-03-02T14:39:20;17.00;64.50
14850;DHT22;7517;48.400;11.770;2024-03-02T14:41:47;17.00;64.60
14850;DHT22;7517;48.400;11.770;2024-03-02T14:44:16;17.00;64.70
14850;DHT22;7517;48.400;11.770;2024-03-02T14:46:46;17.00;64.70
14850;DHT22;7517;48.400;11.770;2024-03-02T14:49:14;17.00;64.40
14850;DHT22;7517;48.400;11.770;2024-03-02T14:51:43;17.00;64.40
14850;DHT22;7517;48.400;11.770;2024-03-02T14:54:10;17.00;64.30
14850;DHT22;7517;48.400;11.770;2024-03-02T14:56:38;17.00;64.20
14850;DHT22;7517;48.400;11.770;2024-03-02T14:59:05;17.00;64.10
14850;DHT22;7517;48.400;11.770;2024-03-02T15:01:34;17.00;64.10
14850;DHT22;7517;48.400;11.770;2024-03-02T15:04:01;16.90;64.00
14850;DHT22;7517;48.400;11.770;2024-03-02T15:06:28;17.00;64.20
14850;DHT22;7517;48.400;11.770;2024-03-02T15:08:56;17.00;64.20
14850;DHT22;7517;48.400;11.770;2024-03-02T15:11:23;17.00;64.20
14850;DHT22;7517;48.400;11.770;2024-03-02T15:13:51;17.00;64.10
14850;DHT22;7517;48.400;11.770;2024-03-02T15:16:19;17.00;64.00
14850;DHT22;7517;48.400;11.770;2024-03-02T15:18:48;17.00;64.10
14850;DHT22;7517;48.400;11.770;2024-03-02T15:21:15;17.00;64.30
14850;DHT22;7517;48.400;11.770;2024-03-02T15:23:45;16.90;64.40
14850;DHT22;7517;48.400;11.770;2024-03-02T15:26:12;16.90;64.50
14850;DHT22;7517;48.400;11.770;2024-03-02T15:28:39;16.90;64.60
14850;DHT22;7517;48.400;11.770;2024-03-02T15:31:07;16.90;64.60
14850;DHT22;7517;48.400;11.770;2024-03-02T15:33:34;16.90;64.60
14850;DHT22;7517;48.400;11.770;2024-03-02T15:36:03;16.90;64.70
14850;DHT22;7517;48.400;11.770;2024-03-02T15:38:31;16.90;64.40